Gether, Virginia
Current Conditions -  °F | °C
As of 9:54 PM on Tuesday 25 Nov 2014 (Local Time) from KOFP Reporting Station
Overcast Overcast  
Wind Chill: 50°   Ceiling: 12000
Heat Index: 50°   Visibility: 10mi
Dew Point: 41°   Wind: 3mph
Humidity: 71%   Direction: 90°E
Pressure: 30.16"   Gusts: NA
Location:  37.969°N, 77.2743°W
Report Text: KOFP 260254Z AUTO 09003KT 10SM OVC120 10/05 A3016 RMK AO2 SLP211 T01000050 53014
Loading
Personal Weather Stations






























Interactive Weather Map New forecast layout! Learn more

10-Day Weather Forecast

Advertisements
Track Severe Weather on mobile